Hauptseite
METAR-TAF:

METAR-TAF

Flughäfen :

Mecklenburg, Deutschland

Flughafen Schwerin-Parchim

Breite: 53-25-37N, Länge: 011-47-01E, Höhe: 52 m

Beobachtung

Neuester Wetterbericht von vor 21 Stunden und 6 Minuten, um 16:50 UTC
Wind 7 kt aus Ost/Nordost
Temperatur -3°C
Luftfeuchtigkeit 58%
Luftdruck 1027 hPa
Sichtweite 10 km oder mehr
keine Wolken unter 1500 m und keine Kumulonimbus oder Gewitterwolken

METAR: EDOP 231650Z 06007KT CAVOK M03/M10 Q1027

Zeit: 14:56 (13:56 UTC)

Prognose

Neuester Wetterbericht von vor 20 Stunden und 56 Minuten, um 17:00 UTC
Gültige Prognose vom 23 um 18 UTC bis 24 um 18 UTC
Wind 4 kt aus Ost/Nordost
Sichtweite 10 km oder mehr
keine Wolken unter 1500 m und keine Kumulonimbus oder Gewitterwolken
Übergehend zu
vom 24 um 06 UTC bis 24 um 08 UTC
Wind 10 kt aus Ost/Nordost

TAF: EDOP 231700Z 2318/2418 06004KT CAVOK BECMG 2406/2408 06010KT

Wetterbeobachtungen und Prognosen von mehr als 4000 Flughäfen (METAR und TAF Bericht).

Die verfügbaren Stationen werden durch gelbe und rote Markierungen auf der Karte dargestellt.

Führen Sie die Maus auf sie, um den Namen der Station zu sehen.

Darauf klicken, um die Beobachtung von Wetterbeobachtungen und Prognosen zu sehen.

Um die Karte zu ändern : klicken Sie auf den grünen Tasten mit einem schwarzen Kreuz Zum Vergrößern, auf den grünen Button mit einem Gedankenstrich zu verkleinern, oder auf die grünen Pfeile für benachbarte Karten.


METAR-TAF: